sensor_id;sensor_type;location;lat;lon;timestamp;pressure;altitude;pressure_sealevel;temperature;humidity
59106;BME280;44891;50.204;8.132;2023-05-27T00:03:56;99231.19;;;11.21;67.83
59106;BME280;44891;50.204;8.132;2023-05-27T00:07:58;99229.94;;;11.05;68.58
59106;BME280;44891;50.204;8.132;2023-05-27T00:12:01;99227.16;;;11.00;68.20
59106;BME280;44891;50.204;8.132;2023-05-27T00:16:03;99221.03;;;10.81;69.04
59106;BME280;44891;50.204;8.132;2023-05-27T00:20:05;99225.19;;;10.70;69.35
59106;BME280;44891;50.204;8.132;2023-05-27T00:24:09;99216.03;;;10.48;70.73
59106;BME280;44891;50.204;8.132;2023-05-27T00:28:12;99227.38;;;10.42;71.01
59106;BME280;44891;50.204;8.132;2023-05-27T00:32:14;99224.84;;;10.28;71.44
59106;BME280;44891;50.204;8.132;2023-05-27T00:36:16;99221.97;;;9.92;72.63
59106;BME280;44891;50.204;8.132;2023-05-27T00:40:19;99229.34;;;10.08;72.66
59106;BME280;44891;50.204;8.132;2023-05-27T00:44:24;99229.63;;;10.38;71.24
59106;BME280;44891;50.204;8.132;2023-05-27T00:48:25;99227.19;;;10.37;70.44
59106;BME280;44891;50.204;8.132;2023-05-27T00:52:28;99225.63;;;10.22;71.05
59106;BME280;44891;50.204;8.132;2023-05-27T00:56:30;99233.03;;;10.00;72.02
59106;BME280;44891;50.204;8.132;2023-05-27T01:00:34;99231.44;;;9.93;71.90
59106;BME280;44891;50.204;8.132;2023-05-27T01:04:37;99233.91;;;9.81;72.70
59106;BME280;44891;50.204;8.132;2023-05-27T01:08:41;99227.84;;;9.87;72.60
59106;BME280;44891;50.204;8.132;2023-05-27T01:12:50;99233.50;;;9.91;72.14
59106;BME280;44891;50.204;8.132;2023-05-27T01:16:56;99229.47;;;9.81;72.34
59106;BME280;44891;50.204;8.132;2023-05-27T01:20:59;99221.66;;;9.62;72.99
59106;BME280;44891;50.204;8.132;2023-05-27T01:25:05;99213.47;;;9.38;74.61
59106;BME280;44891;50.204;8.132;2023-05-27T01:29:09;99210.31;;;8.70;77.30
59106;BME280;44891;50.204;8.132;2023-05-27T01:33:11;99210.94;;;8.72;78.05
59106;BME280;44891;50.204;8.132;2023-05-27T01:37:16;99209.25;;;9.24;75.87
59106;BME280;44891;50.204;8.132;2023-05-27T01:41:22;99206.69;;;8.71;77.49
59106;BME280;44891;50.204;8.132;2023-05-27T01:45:25;99211.50;;;9.07;76.26
59106;BME280;44891;50.204;8.132;2023-05-27T01:49:27;99203.03;;;9.18;75.46
59106;BME280;44891;50.204;8.132;2023-05-27T01:53:29;99206.63;;;9.24;74.95
59106;BME280;44891;50.204;8.132;2023-05-27T01:57:32;99205.28;;;8.88;76.57
59106;BME280;44891;50.204;8.132;2023-05-27T02:01:34;99197.00;;;9.11;75.62
59106;BME280;44891;50.204;8.132;2023-05-27T02:05:36;99196.81;;;9.06;75.21
59106;BME280;44891;50.204;8.132;2023-05-27T02:09:38;99191.97;;;8.70;76.70
59106;BME280;44891;50.204;8.132;2023-05-27T02:13:42;99187.53;;;8.57;77.63
59106;BME280;44891;50.204;8.132;2023-05-27T02:17:44;99184.47;;;8.27;79.92
59106;BME280;44891;50.204;8.132;2023-05-27T02:21:47;99182.94;;;8.59;77.74
59106;BME280;44891;50.204;8.132;2023-05-27T02:25:49;99177.06;;;8.57;77.21
59106;BME280;44891;50.204;8.132;2023-05-27T02:29:52;99169.63;;;8.61;76.58
59106;BME280;44891;50.204;8.132;2023-05-27T02:33:54;99185.50;;;8.26;77.99
59106;BME280;44891;50.204;8.132;2023-05-27T02:37:56;99182.44;;;8.23;78.30
59106;BME280;44891;50.204;8.132;2023-05-27T02:41:58;99189.47;;;8.15;79.03
59106;BME280;44891;50.204;8.132;2023-05-27T02:46:01;99194.47;;;7.97;79.21
59106;BME280;44891;50.204;8.132;2023-05-27T02:50:04;99189.03;;;7.99;79.53
59106;BME280;44891;50.204;8.132;2023-05-27T02:54:06;99179.22;;;8.14;78.39
59106;BME280;44891;50.204;8.132;2023-05-27T02:58:08;99182.84;;;8.20;77.63
59106;BME280;44891;50.204;8.132;2023-05-27T03:02:11;99183.00;;;8.05;78.68
59106;BME280;44891;50.204;8.132;2023-05-27T03:06:13;99172.97;;;8.15;77.37
59106;BME280;44891;50.204;8.132;2023-05-27T03:10:16;99174.75;;;8.01;78.04
59106;BME280;44891;50.204;8.132;2023-05-27T03:14:18;99188.41;;;7.97;77.86
59106;BME280;44891;50.204;8.132;2023-05-27T03:18:21;99189.94;;;7.71;79.27
59106;BME280;44891;50.204;8.132;2023-05-27T03:22:24;99182.34;;;7.83;78.67
59106;BME280;44891;50.204;8.132;2023-05-27T03:26:26;99179.75;;;7.35;80.20
59106;BME280;44891;50.204;8.132;2023-05-27T03:30:29;99192.81;;;7.35;81.14
59106;BME280;44891;50.204;8.132;2023-05-27T03:34:33;99183.44;;;7.54;79.26
59106;BME280;44891;50.204;8.132;2023-05-27T03:38:36;99176.25;;;7.62;78.21
59106;BME280;44891;50.204;8.132;2023-05-27T03:42:37;99172.81;;;7.62;78.76
59106;BME280;44891;50.204;8.132;2023-05-27T03:46:39;99177.84;;;7.63;77.70
59106;BME280;44891;50.204;8.132;2023-05-27T03:50:43;99174.63;;;7.61;77.59
59106;BME280;44891;50.204;8.132;2023-05-27T03:54:45;99183.97;;;7.36;78.89
59106;BME280;44891;50.204;8.132;2023-05-27T03:58:49;99185.19;;;7.40;79.98
59106;BME280;44891;50.204;8.132;2023-05-27T04:02:50;99183.97;;;7.36;80.32
59106;BME280;44891;50.204;8.132;2023-05-27T04:06:54;99191.66;;;7.51;79.38
59106;BME280;44891;50.204;8.132;2023-05-27T04:10:55;99191.25;;;7.47;78.96
59106;BME280;44891;50.204;8.132;2023-05-27T04:14:59;99193.91;;;7.54;79.27
59106;BME280;44891;50.204;8.132;2023-05-27T04:19:01;99192.50;;;7.58;79.13
59106;BME280;44891;50.204;8.132;2023-05-27T04:23:04;99185.69;;;7.63;79.14
59106;BME280;44891;50.204;8.132;2023-05-27T04:27:07;99200.44;;;7.78;78.41
59106;BME280;44891;50.204;8.132;2023-05-27T04:31:10;99190.59;;;7.80;78.21
59106;BME280;44891;50.204;8.132;2023-05-27T04:35:17;99190.38;;;7.75;78.61
59106;BME280;44891;50.204;8.132;2023-05-27T04:39:21;99194.19;;;7.79;79.04
59106;BME280;44891;50.204;8.132;2023-05-27T04:43:24;99187.19;;;7.86;79.30
59106;BME280;44891;50.204;8.132;2023-05-27T04:47:27;99195.25;;;7.98;79.57
59106;BME280;44891;50.204;8.132;2023-05-27T04:51:32;99192.91;;;8.23;78.82
59106;BME280;44891;50.204;8.132;2023-05-27T04:55:37;99185.66;;;8.25;79.11
59106;BME280;44891;50.204;8.132;2023-05-27T04:59:42;99186.25;;;8.13;80.05
59106;BME280;44891;50.204;8.132;2023-05-27T05:03:59;99192.34;;;8.34;79.53
59106;BME280;44891;50.204;8.132;2023-05-27T05:08:16;99187.97;;;8.48;79.04
59106;BME280;44891;50.204;8.132;2023-05-27T05:12:19;99196.41;;;8.69;79.09
59106;BME280;44891;50.204;8.132;2023-05-27T05:16:23;99202.44;;;8.77;79.26
59106;BME280;44891;50.204;8.132;2023-05-27T05:20:26;99199.44;;;8.93;78.96
59106;BME280;44891;50.204;8.132;2023-05-27T05:24:28;99192.94;;;9.15;78.25
59106;BME280;44891;50.204;8.132;2023-05-27T05:28:32;99194.72;;;9.41;78.17
59106;BME280;44891;50.204;8.132;2023-05-27T05:32:34;99192.03;;;9.61;77.61
59106;BME280;44891;50.204;8.132;2023-05-27T05:36:37;99194.19;;;9.77;77.62
59106;BME280;44891;50.204;8.132;2023-05-27T05:40:41;99200.50;;;10.01;77.62
59106;BME280;44891;50.204;8.132;2023-05-27T05:44:52;99197.69;;;10.03;77.96
59106;BME280;44891;50.204;8.132;2023-05-27T05:48:54;99202.41;;;10.32;77.18
59106;BME280;44891;50.204;8.132;2023-05-27T05:53:06;99206.88;;;10.57;76.86
59106;BME280;44891;50.204;8.132;2023-05-27T05:57:08;99201.78;;;10.62;77.00
59106;BME280;44891;50.204;8.132;2023-05-27T06:01:11;99207.66;;;10.82;77.03
59106;BME280;44891;50.204;8.132;2023-05-27T06:05:16;99201.59;;;11.07;76.10
59106;BME280;44891;50.204;8.132;2023-05-27T06:09:18;99205.28;;;11.24;76.49
59106;BME280;44891;50.204;8.132;2023-05-27T06:13:21;99201.41;;;11.27;76.56
59106;BME280;44891;50.204;8.132;2023-05-27T06:17:26;99207.34;;;11.40;76.50
59106;BME280;44891;50.204;8.132;2023-05-27T06:21:28;99206.03;;;11.50;76.94
59106;BME280;44891;50.204;8.132;2023-05-27T06:25:58;99208.22;;;11.71;76.50
59106;BME280;44891;50.204;8.132;2023-05-27T06:30:04;99215.75;;;11.86;75.55
59106;BME280;44891;50.204;8.132;2023-05-27T06:34:11;99196.03;;;12.07;73.45
59106;BME280;44891;50.204;8.132;2023-05-27T06:38:13;99201.69;;;12.10;72.34
59106;BME280;44891;50.204;8.132;2023-05-27T06:42:15;99195.75;;;12.27;72.12
59106;BME280;44891;50.204;8.132;2023-05-27T06:46:16;99200.28;;;12.38;71.06
59106;BME280;44891;50.204;8.132;2023-05-27T06:50:38;99189.63;;;12.44;71.44
59106;BME280;44891;50.204;8.132;2023-05-27T06:54:40;99192.28;;;12.56;70.98
59106;BME280;44891;50.204;8.132;2023-05-27T06:59:00;99192.53;;;12.66;70.72
59106;BME280;44891;50.204;8.132;2023-05-27T07:03:02;99180.53;;;12.82;69.70
59106;BME280;44891;50.204;8.132;2023-05-27T07:07:06;99179.25;;;12.96;69.11
59106;BME280;44891;50.204;8.132;2023-05-27T07:11:08;99183.38;;;13.16;68.72
59106;BME280;44891;50.204;8.132;2023-05-27T07:15:10;99179.81;;;13.33;69.21
59106;BME280;44891;50.204;8.132;2023-05-27T07:19:13;99182.78;;;13.60;67.74
59106;BME280;44891;50.204;8.132;2023-05-27T07:23:23;99185.56;;;13.82;67.72
59106;BME280;44891;50.204;8.132;2023-05-27T07:27:34;99172.69;;;13.86;65.67
59106;BME280;44891;50.204;8.132;2023-05-27T07:31:36;99166.16;;;14.05;65.63
59106;BME280;44891;50.204;8.132;2023-05-27T07:35:45;99161.91;;;14.33;64.42
59106;BME280;44891;50.204;8.132;2023-05-27T07:39:48;99157.44;;;14.50;63.35
59106;BME280;44891;50.204;8.132;2023-05-27T07:43:52;99139.50;;;14.69;63.03
59106;BME280;44891;50.204;8.132;2023-05-27T07:47:54;99140.50;;;14.85;61.17
59106;BME280;44891;50.204;8.132;2023-05-27T07:51:56;99135.84;;;14.92;60.91
59106;BME280;44891;50.204;8.132;2023-05-27T07:55:59;99141.81;;;14.99;61.50
59106;BME280;44891;50.204;8.132;2023-05-27T08:00:01;99137.97;;;15.12;61.29
59106;BME280;44891;50.204;8.132;2023-05-27T08:04:22;99135.38;;;15.34;60.65
59106;BME280;44891;50.204;8.132;2023-05-27T08:08:43;99122.56;;;15.69;58.90
59106;BME280;44891;50.204;8.132;2023-05-27T08:12:56;99117.72;;;15.88;58.68
59106;BME280;44891;50.204;8.132;2023-05-27T08:17:09;99120.44;;;16.25;58.27
59106;BME280;44891;50.204;8.132;2023-05-27T08:21:21;99100.97;;;16.47;56.29
59106;BME280;44891;50.204;8.132;2023-05-27T08:25:43;99106.22;;;16.74;56.51
59106;BME280;44891;50.204;8.132;2023-05-27T08:29:57;99095.72;;;16.94;55.25
59106;BME280;44891;50.204;8.132;2023-05-27T08:34:10;99093.19;;;17.20;53.62
59106;BME280;44891;50.204;8.132;2023-05-27T08:38:12;99080.22;;;17.28;54.02
59106;BME280;44891;50.204;8.132;2023-05-27T08:42:15;99078.19;;;17.51;53.49
59106;BME280;44891;50.204;8.132;2023-05-27T08:46:19;99046.56;;;17.44;53.26
59106;BME280;44891;50.204;8.132;2023-05-27T08:50:22;99064.97;;;17.86;53.45
59106;BME280;44891;50.204;8.132;2023-05-27T08:54:24;99061.81;;;18.10;49.08
59106;BME280;44891;50.204;8.132;2023-05-27T08:58:30;99059.38;;;18.08;49.75
59106;BME280;44891;50.204;8.132;2023-05-27T09:02:34;99058.88;;;18.11;49.83
59106;BME280;44891;50.204;8.132;2023-05-27T09:06:36;99054.34;;;18.27;50.12
59106;BME280;44891;50.204;8.132;2023-05-27T09:10:38;99057.50;;;18.50;49.27
59106;BME280;44891;50.204;8.132;2023-05-27T09:14:40;99046.56;;;18.77;48.54
59106;BME280;44891;50.204;8.132;2023-05-27T09:18:45;99056.06;;;18.98;46.47
59106;BME280;44891;50.204;8.132;2023-05-27T09:22:47;99039.72;;;19.20;46.18
59106;BME280;44891;50.204;8.132;2023-05-27T09:26:50;99043.22;;;19.15;45.21
59106;BME280;44891;50.204;8.132;2023-05-27T09:30:58;99038.31;;;19.33;46.55
59106;BME280;44891;50.204;8.132;2023-05-27T09:35:04;99033.72;;;19.48;45.51
59106;BME280;44891;50.204;8.132;2023-05-27T09:39:17;99028.47;;;19.33;45.82
59106;BME280;44891;50.204;8.132;2023-05-27T09:43:19;99029.81;;;19.36;46.35
59106;BME280;44891;50.204;8.132;2023-05-27T09:47:21;99019.34;;;19.44;46.45
59106;BME280;44891;50.204;8.132;2023-05-27T09:51:24;99017.75;;;19.43;45.60
59106;BME280;44891;50.204;8.132;2023-05-27T09:55:28;99014.09;;;19.73;46.40
59106;BME280;44891;50.204;8.132;2023-05-27T09:59:30;99010.41;;;20.03;46.23
59106;BME280;44891;50.204;8.132;2023-05-27T10:03:33;99010.56;;;20.17;46.35
59106;BME280;44891;50.204;8.132;2023-05-27T10:07:39;98995.38;;;20.42;45.92
59106;BME280;44891;50.204;8.132;2023-05-27T10:11:43;99001.31;;;20.62;46.67
59106;BME280;44891;50.204;8.132;2023-05-27T10:15:46;98987.63;;;20.40;45.53
59106;BME280;44891;50.204;8.132;2023-05-27T10:19:54;98987.91;;;20.38;43.87
59106;BME280;44891;50.204;8.132;2023-05-27T10:23:57;98988.81;;;20.58;45.17
59106;BME280;44891;50.204;8.132;2023-05-27T10:28:00;98988.25;;;20.61;44.53
59106;BME280;44891;50.204;8.132;2023-05-27T10:32:02;98977.78;;;20.88;44.55
59106;BME280;44891;50.204;8.132;2023-05-27T10:36:06;98984.44;;;21.10;42.99
59106;BME280;44891;50.204;8.132;2023-05-27T10:40:09;98975.13;;;21.07;43.70
59106;BME280;44891;50.204;8.132;2023-05-27T10:44:13;98964.09;;;21.33;44.54
59106;BME280;44891;50.204;8.132;2023-05-27T10:48:15;98969.84;;;21.21;42.53
59106;BME280;44891;50.204;8.132;2023-05-27T10:52:18;98966.13;;;21.41;42.71
59106;BME280;44891;50.204;8.132;2023-05-27T10:56:20;98964.00;;;21.57;41.27
59106;BME280;44891;50.204;8.132;2023-05-27T11:00:23;98941.66;;;21.66;41.22
59106;BME280;44891;50.204;8.132;2023-05-27T11:04:33;98959.31;;;21.81;40.66
59106;BME280;44891;50.204;8.132;2023-05-27T11:08:35;98953.31;;;22.03;40.86
59106;BME280;44891;50.204;8.132;2023-05-27T11:12:38;98951.75;;;21.69;40.46
59106;BME280;44891;50.204;8.132;2023-05-27T11:16:47;98942.63;;;22.03;41.51
59106;BME280;44891;50.204;8.132;2023-05-27T11:20:51;98946.53;;;22.24;39.26
59106;BME280;44891;50.204;8.132;2023-05-27T11:24:57;98935.94;;;22.19;39.61
59106;BME280;44891;50.204;8.132;2023-05-27T11:28:58;98934.06;;;22.47;39.93
59106;BME280;44891;50.204;8.132;2023-05-27T11:33:02;98928.50;;;22.44;39.42
59106;BME280;44891;50.204;8.132;2023-05-27T11:37:04;98913.38;;;22.75;39.42
59106;BME280;44891;50.204;8.132;2023-05-27T11:41:06;98920.84;;;22.92;37.76
59106;BME280;44891;50.204;8.132;2023-05-27T11:45:14;98911.69;;;22.79;38.35
59106;BME280;44891;50.204;8.132;2023-05-27T11:49:17;98902.09;;;23.15;38.20
59106;BME280;44891;50.204;8.132;2023-05-27T11:53:19;98907.94;;;23.17;37.56
59106;BME280;44891;50.204;8.132;2023-05-27T11:57:21;98899.84;;;23.30;37.25
59106;BME280;44891;50.204;8.132;2023-05-27T12:01:23;98897.03;;;23.36;37.13
59106;BME280;44891;50.204;8.132;2023-05-27T12:05:27;98897.28;;;23.25;37.06
59106;BME280;44891;50.204;8.132;2023-05-27T12:09:28;98891.38;;;23.37;36.91
59106;BME280;44891;50.204;8.132;2023-05-27T12:13:30;98886.91;;;23.55;35.90
59106;BME280;44891;50.204;8.132;2023-05-27T12:17:32;98889.06;;;23.44;35.96
59106;BME280;44891;50.204;8.132;2023-05-27T12:21:36;98882.59;;;23.45;36.25
59106;BME280;44891;50.204;8.132;2023-05-27T12:25:38;98872.03;;;23.49;36.83
59106;BME280;44891;50.204;8.132;2023-05-27T12:29:40;98870.63;;;23.74;36.31
59106;BME280;44891;50.204;8.132;2023-05-27T12:33:41;98856.00;;;23.80;36.44
59106;BME280;44891;50.204;8.132;2023-05-27T12:37:46;98852.38;;;23.53;36.55
59106;BME280;44891;50.204;8.132;2023-05-27T12:41:47;98842.13;;;23.86;36.20
59106;BME280;44891;50.204;8.132;2023-05-27T12:45:50;98843.03;;;24.22;35.65
59106;BME280;44891;50.204;8.132;2023-05-27T12:49:52;98848.88;;;24.24;35.41
59106;BME280;44891;50.204;8.132;2023-05-27T12:53:56;98838.06;;;24.55;33.85
59106;BME280;44891;50.204;8.132;2023-05-27T12:57:58;98828.25;;;24.41;34.59
59106;BME280;44891;50.204;8.132;2023-05-27T13:01:59;98817.38;;;24.64;34.12
59106;BME280;44891;50.204;8.132;2023-05-27T13:06:01;98814.53;;;24.60;33.63
59106;BME280;44891;50.204;8.132;2023-05-27T13:10:05;98813.41;;;24.53;34.15
59106;BME280;44891;50.204;8.132;2023-05-27T13:14:07;98818.78;;;24.61;33.95
59106;BME280;44891;50.204;8.132;2023-05-27T13:18:09;98814.22;;;24.71;32.95
59106;BME280;44891;50.204;8.132;2023-05-27T13:22:11;98799.97;;;24.87;33.12
59106;BME280;44891;50.204;8.132;2023-05-27T13:26:16;98797.13;;;24.40;32.72
59106;BME280;44891;50.204;8.132;2023-05-27T13:30:17;98803.47;;;24.71;33.11
59106;BME280;44891;50.204;8.132;2023-05-27T13:34:19;98795.56;;;24.74;32.72
59106;BME280;44891;50.204;8.132;2023-05-27T13:38:21;98790.84;;;24.71;32.02
59106;BME280;44891;50.204;8.132;2023-05-27T13:42:24;98786.06;;;25.03;32.82
59106;BME280;44891;50.204;8.132;2023-05-27T13:46:29;98767.88;;;25.08;32.94
59106;BME280;44891;50.204;8.132;2023-05-27T13:50:31;98769.91;;;25.20;32.92
59106;BME280;44891;50.204;8.132;2023-05-27T13:54:33;98768.78;;;25.21;31.70
59106;BME280;44891;50.204;8.132;2023-05-27T13:58:37;98760.91;;;25.07;32.66
59106;BME280;44891;50.204;8.132;2023-05-27T14:02:39;98760.13;;;25.07;32.42
59106;BME280;44891;50.204;8.132;2023-05-27T14:06:40;98755.09;;;24.88;32.78
59106;BME280;44891;50.204;8.132;2023-05-27T14:10:42;98752.56;;;24.74;33.63
59106;BME280;44891;50.204;8.132;2023-05-27T14:14:45;98745.41;;;24.95;32.95
59106;BME280;44891;50.204;8.132;2023-05-27T14:18:47;98751.44;;;25.10;32.28
59106;BME280;44891;50.204;8.132;2023-05-27T14:22:49;98746.84;;;25.02;32.30
59106;BME280;44891;50.204;8.132;2023-05-27T14:26:51;98738.97;;;24.97;33.31
59106;BME280;44891;50.204;8.132;2023-05-27T14:30:54;98735.78;;;25.12;33.22
59106;BME280;44891;50.204;8.132;2023-05-27T14:34:56;98733.25;;;25.07;32.53
59106;BME280;44891;50.204;8.132;2023-05-27T14:38:58;98707.09;;;24.52;33.33
59106;BME280;44891;50.204;8.132;2023-05-27T14:43:03;98714.72;;;25.14;33.02
59106;BME280;44891;50.204;8.132;2023-05-27T14:47:07;98715.06;;;25.12;33.30
59106;BME280;44891;50.204;8.132;2023-05-27T14:51:08;98714.09;;;25.17;33.38
59106;BME280;44891;50.204;8.132;2023-05-27T14:55:10;98713.81;;;25.10;33.21
59106;BME280;44891;50.204;8.132;2023-05-27T14:59:12;98697.00;;;25.21;33.41
59106;BME280;44891;50.204;8.132;2023-05-27T15:03:15;98703.16;;;25.22;33.37
59106;BME280;44891;50.204;8.132;2023-05-27T15:07:17;98698.66;;;24.88;33.32
59106;BME280;44891;50.204;8.132;2023-05-27T15:11:23;98703.06;;;24.92;33.76
59106;BME280;44891;50.204;8.132;2023-05-27T15:15:24;98698.16;;;25.03;33.32
59106;BME280;44891;50.204;8.132;2023-05-27T15:19:28;98703.88;;;24.93;33.25
59106;BME280;44891;50.204;8.132;2023-05-27T15:23:29;98700.84;;;25.03;33.17
59106;BME280;44891;50.204;8.132;2023-05-27T15:27:31;98695.69;;;24.72;33.22
59106;BME280;44891;50.204;8.132;2023-05-27T15:31:33;98694.84;;;24.98;33.80
59106;BME280;44891;50.204;8.132;2023-05-27T15:35:36;98692.34;;;24.92;32.42
59106;BME280;44891;50.204;8.132;2023-05-27T15:39:38;98683.31;;;24.88;32.42
59106;BME280;44891;50.204;8.132;2023-05-27T15:43:40;98689.47;;;24.98;33.01
59106;BME280;44891;50.204;8.132;2023-05-27T15:47:42;98685.28;;;24.62;32.80
59106;BME280;44891;50.204;8.132;2023-05-27T15:51:45;98679.38;;;24.86;33.23
59106;BME280;44891;50.204;8.132;2023-05-27T15:55:47;98670.28;;;24.70;32.99
59106;BME280;44891;50.204;8.132;2023-05-27T15:59:49;98668.25;;;24.58;33.24
59106;BME280;44891;50.204;8.132;2023-05-27T16:03:51;98658.31;;;24.41;33.74
59106;BME280;44891;50.204;8.132;2023-05-27T16:07:54;98661.47;;;24.43;33.44
59106;BME280;44891;50.204;8.132;2023-05-27T16:11:56;98661.47;;;24.17;33.03
59106;BME280;44891;50.204;8.132;2023-05-27T16:15:57;98658.31;;;24.24;33.78
59106;BME280;44891;50.204;8.132;2023-05-27T16:19:59;98661.94;;;24.10;33.03
59106;BME280;44891;50.204;8.132;2023-05-27T16:24:03;98660.19;;;23.80;32.95
59106;BME280;44891;50.204;8.132;2023-05-27T16:28:04;98652.47;;;23.78;33.47
59106;BME280;44891;50.204;8.132;2023-05-27T16:32:06;98646.31;;;23.78;33.61
59106;BME280;44891;50.204;8.132;2023-05-27T16:36:08;98646.84;;;23.49;34.73
59106;BME280;44891;50.204;8.132;2023-05-27T16:40:12;98634.13;;;23.63;34.53
59106;BME280;44891;50.204;8.132;2023-05-27T16:44:14;98639.19;;;23.65;35.33
59106;BME280;44891;50.204;8.132;2023-05-27T16:48:16;98635.78;;;23.42;34.62
59106;BME280;44891;50.204;8.132;2023-05-27T16:52:18;98630.09;;;23.34;35.18
59106;BME280;44891;50.204;8.132;2023-05-27T16:56:22;98627.72;;;23.24;34.40
59106;BME280;44891;50.204;8.132;2023-05-27T17:00:23;98626.88;;;23.15;34.77
59106;BME280;44891;50.204;8.132;2023-05-27T17:04:26;98627.69;;;23.16;35.58
59106;BME280;44891;50.204;8.132;2023-05-27T17:08:28;98623.25;;;23.11;34.58
59106;BME280;44891;50.204;8.132;2023-05-27T17:12:31;98624.28;;;22.93;34.92
59106;BME280;44891;50.204;8.132;2023-05-27T17:16:33;98616.28;;;23.01;34.39
59106;BME280;44891;50.204;8.132;2023-05-27T17:20:35;98618.66;;;22.72;35.32
59106;BME280;44891;50.204;8.132;2023-05-27T17:24:37;98621.47;;;22.67;35.39
59106;BME280;44891;50.204;8.132;2023-05-27T17:28:40;98613.13;;;22.68;36.01
59106;BME280;44891;50.204;8.132;2023-05-27T17:32:42;98614.13;;;22.50;34.68
59106;BME280;44891;50.204;8.132;2023-05-27T17:36:43;98614.47;;;22.57;34.74
59106;BME280;44891;50.204;8.132;2023-05-27T17:40:45;98614.66;;;22.61;34.83
59106;BME280;44891;50.204;8.132;2023-05-27T17:44:48;98612.41;;;22.54;35.12
59106;BME280;44891;50.204;8.132;2023-05-27T17:48:50;98613.00;;;22.20;35.14
59106;BME280;44891;50.204;8.132;2023-05-27T17:52:52;98615.78;;;22.15;35.18
59106;BME280;44891;50.204;8.132;2023-05-27T17:56:54;98610.63;;;22.05;35.18
59106;BME280;44891;50.204;8.132;2023-05-27T18:00:57;98602.59;;;22.05;35.76
59106;BME280;44891;50.204;8.132;2023-05-27T18:04:59;98609.09;;;21.90;36.37
59106;BME280;44891;50.204;8.132;2023-05-27T18:09:02;98610.97;;;21.67;36.32
59106;BME280;44891;50.204;8.132;2023-05-27T18:13:06;98612.88;;;21.53;36.82
59106;BME280;44891;50.204;8.132;2023-05-27T18:17:15;98613.88;;;21.29;37.86
59106;BME280;44891;50.204;8.132;2023-05-27T18:21:17;98617.22;;;21.21;38.48
59106;BME280;44891;50.204;8.132;2023-05-27T18:25:18;98613.56;;;20.89;39.69
59106;BME280;44891;50.204;8.132;2023-05-27T18:29:20;98616.16;;;20.95;39.90
59106;BME280;44891;50.204;8.132;2023-05-27T18:33:23;98584.50;;;20.42;41.31
59106;BME280;44891;50.204;8.132;2023-05-27T18:37:25;98621.84;;;20.60;42.78
59106;BME280;44891;50.204;8.132;2023-05-27T18:41:27;98620.34;;;20.35;45.01
59106;BME280;44891;50.204;8.132;2023-05-27T18:49:47;98617.66;;;20.03;46.22
59106;BME280;44891;50.204;8.132;2023-05-27T18:53:49;98617.44;;;19.99;46.21
59106;BME280;44891;50.204;8.132;2023-05-27T18:57:51;98632.88;;;19.83;46.82
59106;BME280;44891;50.204;8.132;2023-05-27T19:01:52;98639.81;;;19.61;47.58
59106;BME280;44891;50.204;8.132;2023-05-27T19:05:56;98630.47;;;19.39;48.27
59106;BME280;44891;50.204;8.132;2023-05-27T19:09:57;98636.63;;;19.16;49.80
59106;BME280;44891;50.204;8.132;2023-05-27T19:13:59;98636.75;;;18.77;49.99
59106;BME280;44891;50.204;8.132;2023-05-27T19:18:01;98640.84;;;18.69;50.84
59106;BME280;44891;50.204;8.132;2023-05-27T19:22:04;98642.78;;;17.80;53.22
59106;BME280;44891;50.204;8.132;2023-05-27T19:26:06;98638.50;;;17.09;54.53
59106;BME280;44891;50.204;8.132;2023-05-27T19:30:08;98636.34;;;17.26;54.25
59106;BME280;44891;50.204;8.132;2023-05-27T19:34:10;98644.72;;;17.54;54.09
59106;BME280;44891;50.204;8.132;2023-05-27T19:38:14;98646.66;;;17.43;54.14
59106;BME280;44891;50.204;8.132;2023-05-27T19:42:15;98649.06;;;17.34;53.95
59106;BME280;44891;50.204;8.132;2023-05-27T19:46:17;98652.28;;;17.26;54.68
59106;BME280;44891;50.204;8.132;2023-05-27T19:50:19;98649.69;;;16.96;54.57
59106;BME280;44891;50.204;8.132;2023-05-27T19:54:22;98659.78;;;16.94;55.27
59106;BME280;44891;50.204;8.132;2023-05-27T19:58:24;98660.34;;;16.75;55.70
59106;BME280;44891;50.204;8.132;2023-05-27T20:02:26;98658.47;;;16.66;55.89
59106;BME280;44891;50.204;8.132;2023-05-27T20:06:28;98661.38;;;16.54;56.43
59106;BME280;44891;50.204;8.132;2023-05-27T20:10:33;98663.78;;;16.45;56.82
59106;BME280;44891;50.204;8.132;2023-05-27T20:14:34;98663.22;;;16.23;57.41
59106;BME280;44891;50.204;8.132;2023-05-27T20:18:36;98662.13;;;16.03;58.02
59106;BME280;44891;50.204;8.132;2023-05-27T20:22:38;98661.34;;;15.93;58.31
59106;BME280;44891;50.204;8.132;2023-05-27T20:26:42;98660.50;;;15.72;58.67
59106;BME280;44891;50.204;8.132;2023-05-27T20:30:44;98667.19;;;15.37;60.12
59106;BME280;44891;50.204;8.132;2023-05-27T20:34:50;98671.78;;;15.05;60.98
59106;BME280;44891;50.204;8.132;2023-05-27T20:38:53;98664.72;;;15.20;61.01
59106;BME280;44891;50.204;8.132;2023-05-27T20:42:58;98665.34;;;14.90;61.25
59106;BME280;44891;50.204;8.132;2023-05-27T20:47:00;98661.41;;;14.98;61.19
59106;BME280;44891;50.204;8.132;2023-05-27T20:51:02;98665.56;;;14.84;61.59
59106;BME280;44891;50.204;8.132;2023-05-27T20:55:05;98655.53;;;14.86;61.53
59106;BME280;44891;50.204;8.132;2023-05-27T20:59:09;98660.88;;;14.54;62.79
59106;BME280;44891;50.204;8.132;2023-05-27T21:03:11;98657.91;;;14.50;62.71
59106;BME280;44891;50.204;8.132;2023-05-27T21:07:12;98655.34;;;14.28;63.72
59106;BME280;44891;50.204;8.132;2023-05-27T21:11:14;98663.41;;;14.17;64.78
59106;BME280;44891;50.204;8.132;2023-05-27T21:15:18;98657.94;;;13.96;65.41
59106;BME280;44891;50.204;8.132;2023-05-27T21:19:20;98656.94;;;14.02;65.16
59106;BME280;44891;50.204;8.132;2023-05-27T21:23:22;98660.00;;;13.45;66.80
59106;BME280;44891;50.204;8.132;2023-05-27T21:27:24;98656.81;;;13.43;67.02
59106;BME280;44891;50.204;8.132;2023-05-27T21:31:27;98649.19;;;13.69;66.67
59106;BME280;44891;50.204;8.132;2023-05-27T21:35:32;98660.41;;;13.59;66.55
59106;BME280;44891;50.204;8.132;2023-05-27T21:39:34;98647.03;;;13.66;66.46